Alamo, TX

2:52 AM CDT on September 01, 2015 (GMT -0500)
McAllen NorthEast | | Change Station
CLOSE
Current Station
Personal Weather Station
Location: McAllen, TX
Elevation: 115 ft
Nearby Weather Stations

Elev 115 ft 26.24 °N, 98.22 °W | Updated 21 seconds ago

Partly Cloudy
Partly Cloudy
77.3 °F
Feels Like 79 °F
N
0.0
Wind Variable Wind from SSE
Gusts 0.0 mph

Today
High -- | Low -- °F
--% Chance of Precip.
Yesterday
High -- | Low -- °F
Precip. -- in
7:12 AM 7:52 PM
Waning Gibbous, 90% visible
Pressure 29.97 in
Visibility 10.0 miles
Clouds Few 3100 ft
Heat Index 79 °F
Dew Point 71 °F
Humidity 82%
Rainfall 0.00 in
Snow Depth Not available.
UV 0 out of 12
Pollen 8.00 out of 12
Air Quality Not available.
Flu Activity Not available.
METAR KMFE 010653Z AUTO 00000KT 10SM FEW031 26/22 A2997 RMK AO2 SLP148 T02610222 PNO
Pressure 29.97 in
Visibility 10.0 miles
Clouds Few 3100 ft
Heat Index 79 °F
Dew Point 71 °F
Humidity 82%
Rainfall 0.00 in
Snow Depth Not available.
UV 0 out of 12
Pollen 8.00 out of 12
Air Quality Not available.
Flu Activity Not available.
METAR KMFE 010653Z AUTO 00000KT 10SM FEW031 26/22 A2997 RMK AO2 SLP148 T02610222 PNO

10-Day Weather Forecast

×

Almanac

Astronomy

Sep. 01, 2015 Rise Set
Actual Time
Civil Twilight
Nautical Twilight
Astronomical Twilight
Moon
Length of Visible Light
Length of Day
Tomorrow will be .
, % of the Moon is Illuminated

Today's Extremes

State Highs State Lows

Community

WunderPhotos

Upload Photos

1,851,488 photos uploaded!

WunderBlogs® & News

Nearby

Air Quality

  Air Quality AQ Index Pollutant
Not available.

Snow Depth

Station Depth Elevation

Earthquake Activity

City Distance Mag. Time & Date
Minimum magnitude displayed is 2.5.

Coastal Water Temperatures

Place Temperature

Stations

Nearby Weather Stations

Station Location Temp. Windchill Dew Point Humidity Wind Precip. Elev Updated Type